createdAt,value
2018-09-02T00:01:39.620Z,18.06
2018-09-02T00:04:08.753Z,18.02
2018-09-02T00:06:37.417Z,17.95
2018-09-02T00:09:06.777Z,17.96
2018-09-02T00:11:35.437Z,17.93
2018-09-02T00:14:04.168Z,17.91
2018-09-02T00:16:32.649Z,17.91
2018-09-02T00:19:01.461Z,17.88
2018-09-02T00:21:29.971Z,17.88
2018-09-02T00:23:58.691Z,17.82
2018-09-02T00:26:27.418Z,17.82
2018-09-02T00:28:56.007Z,17.76
2018-09-02T00:31:24.835Z,17.76
2018-09-02T00:33:53.518Z,17.74
2018-09-02T00:36:22.154Z,17.71
2018-09-02T00:38:50.717Z,17.64
2018-09-02T00:41:19.374Z,17.62
2018-09-02T00:43:48.705Z,17.63
2018-09-02T00:46:17.257Z,17.64
2018-09-02T00:48:45.812Z,17.62
2018-09-02T00:51:14.396Z,17.58
2018-09-02T00:53:43.060Z,17.57
2018-09-02T00:56:11.669Z,17.60
2018-09-02T00:58:40.837Z,17.56
2018-09-02T01:01:09.374Z,17.54
2018-09-02T01:03:38.164Z,17.51
2018-09-02T01:06:06.682Z,17.49
2018-09-02T01:08:35.558Z,17.46
2018-09-02T01:11:04.153Z,17.46
2018-09-02T01:13:32.878Z,17.44
2018-09-02T01:16:02.403Z,17.40
2018-09-02T01:18:31.081Z,17.37
2018-09-02T01:20:59.745Z,17.29
2018-09-02T01:23:28.229Z,17.30
2018-09-02T01:25:56.777Z,17.27
2018-09-02T01:28:25.288Z,17.25
2018-09-02T01:30:53.844Z,17.21
2018-09-02T01:33:22.349Z,17.06
2018-09-02T01:35:50.911Z,17.08
2018-09-02T01:38:20.149Z,17.08
2018-09-02T01:40:48.794Z,17.06
2018-09-02T01:43:18.204Z,17.08
2018-09-02T01:45:47.205Z,16.97
2018-09-02T01:48:15.742Z,16.93
2018-09-02T01:50:44.428Z,16.88
2018-09-02T01:53:13.052Z,16.89
2018-09-02T01:55:41.756Z,16.88
2018-09-02T01:58:10.528Z,16.83
2018-09-02T02:00:39.659Z,16.85
2018-09-02T02:03:08.472Z,16.80
2018-09-02T02:05:37.842Z,16.80
2018-09-02T02:08:06.685Z,16.77
2018-09-02T02:10:36.247Z,16.74
2018-09-02T02:13:04.893Z,16.70
2018-09-02T02:15:33.860Z,16.68
2018-09-02T02:18:02.472Z,16.68
2018-09-02T02:20:32.073Z,16.62
2018-09-02T02:23:00.657Z,16.64
2018-09-02T02:25:29.167Z,16.67
2018-09-02T02:27:57.844Z,16.68
2018-09-02T02:30:26.346Z,16.61
2018-09-02T02:32:55.358Z,16.59
2018-09-02T02:35:24.017Z,16.57
2018-09-02T02:37:52.577Z,16.59
2018-09-02T02:40:21.537Z,16.60
2018-09-02T02:42:50.896Z,16.59
2018-09-02T02:45:20.486Z,16.60
2018-09-02T02:47:49.757Z,16.63
2018-09-02T02:50:18.579Z,16.64
2018-09-02T02:52:52.547Z,16.63
2018-09-02T02:55:21.240Z,16.63
2018-09-02T02:57:50.233Z,16.62
2018-09-02T03:00:19.464Z,16.66
2018-09-02T03:02:48.583Z,16.70
2018-09-02T03:05:17.257Z,16.64
2018-09-02T03:07:45.860Z,16.63
2018-09-02T03:10:14.479Z,16.59
2018-09-02T03:12:43.685Z,16.63
2018-09-02T03:15:12.428Z,16.66
2018-09-02T03:17:40.942Z,16.67
2018-09-02T03:20:10.599Z,16.64
2018-09-02T03:22:39.994Z,16.63
2018-09-02T03:25:08.906Z,16.62
2018-09-02T03:27:38.131Z,16.61
2018-09-02T03:30:06.817Z,16.57
2018-09-02T03:32:35.520Z,16.57
2018-09-02T03:35:04.123Z,16.57
2018-09-02T03:37:32.862Z,16.51
2018-09-02T03:40:01.614Z,16.56
2018-09-02T03:42:30.229Z,16.52
2018-09-02T03:44:58.844Z,16.56
2018-09-02T03:47:27.369Z,16.51
2018-09-02T03:49:55.969Z,16.49
2018-09-02T03:52:24.851Z,16.48
2018-09-02T03:54:53.900Z,16.49
2018-09-02T03:57:23.200Z,16.46
2018-09-02T03:59:51.830Z,16.44
2018-09-02T04:02:20.416Z,16.42
2018-09-02T04:04:48.955Z,16.45
2018-09-02T04:07:17.513Z,16.38
2018-09-02T04:09:46.160Z,16.41
2018-09-02T04:12:14.792Z,16.41
2018-09-02T04:14:43.432Z,16.39
2018-09-02T04:17:11.966Z,16.40
2018-09-02T04:19:41.016Z,16.33
2018-09-02T04:22:09.597Z,16.33
2018-09-02T04:24:38.283Z,16.34
2018-09-02T04:27:09.022Z,16.34
2018-09-02T04:29:37.559Z,16.34
2018-09-02T04:32:07.080Z,16.29
2018-09-02T04:34:35.734Z,16.24
2018-09-02T04:37:05.232Z,16.21
2018-09-02T04:39:34.310Z,16.25
2018-09-02T04:42:02.943Z,16.19
2018-09-02T04:44:31.560Z,16.20
2018-09-02T04:47:00.126Z,16.19
2018-09-02T04:49:28.823Z,16.21
2018-09-02T04:51:57.444Z,16.21
2018-09-02T04:54:26.091Z,16.17
2018-09-02T04:56:54.853Z,16.18
2018-09-02T04:59:23.500Z,16.21
2018-09-02T05:01:52.107Z,16.20
2018-09-02T05:04:20.879Z,16.20
2018-09-02T05:06:49.534Z,16.21
2018-09-02T05:09:18.244Z,16.20
2018-09-02T05:11:46.885Z,16.19
2018-09-02T05:14:15.744Z,16.22
2018-09-02T05:16:44.355Z,16.23
2018-09-02T05:19:12.942Z,16.25
2018-09-02T05:21:41.559Z,16.28
2018-09-02T05:24:10.148Z,16.31
2018-09-02T05:26:38.868Z,16.31
2018-09-02T05:29:07.582Z,16.32
2018-09-02T05:31:36.709Z,16.38
2018-09-02T05:34:05.390Z,16.35
2018-09-02T05:36:34.051Z,16.33
2018-09-02T05:39:02.618Z,16.30
2018-09-02T05:41:31.143Z,16.32
2018-09-02T05:43:59.890Z,16.34
2018-09-02T05:46:29.043Z,16.35
2018-09-02T05:48:57.717Z,16.40
2018-09-02T05:51:26.944Z,16.44
2018-09-02T05:53:55.750Z,16.46
2018-09-02T05:56:24.423Z,16.45
2018-09-02T05:58:53.702Z,16.43
2018-09-02T06:01:22.792Z,16.42
2018-09-02T06:03:51.493Z,16.41
2018-09-02T06:06:20.122Z,16.43
2018-09-02T06:08:48.782Z,16.40
2018-09-02T06:11:17.846Z,16.40
2018-09-02T06:13:46.846Z,16.40
2018-09-02T06:16:15.670Z,16.44
2018-09-02T06:18:44.205Z,16.47
2018-09-02T06:21:12.933Z,16.45
2018-09-02T06:23:41.857Z,16.50
2018-09-02T06:26:11.324Z,16.52
2018-09-02T06:28:39.870Z,16.48
2018-09-02T06:31:08.518Z,16.55
2018-09-02T06:33:37.664Z,16.56
2018-09-02T06:36:06.551Z,16.56
2018-09-02T06:38:35.728Z,16.62
2018-09-02T06:41:04.543Z,16.62
2018-09-02T06:43:33.646Z,16.64
2018-09-02T06:46:02.314Z,16.73
2018-09-02T06:48:31.172Z,16.75
2018-09-02T06:50:59.734Z,16.80
2018-09-02T06:53:28.313Z,16.82
2018-09-02T06:55:56.883Z,16.90
2018-09-02T06:58:25.693Z,16.99
2018-09-02T07:00:55.296Z,17.06
2018-09-02T07:03:24.256Z,17.11
2018-09-02T07:05:53.573Z,17.17
2018-09-02T07:08:22.715Z,17.19
2018-09-02T07:10:52.018Z,17.26
2018-09-02T07:13:20.594Z,17.28
2018-09-02T07:15:50.048Z,17.32
2018-09-02T07:18:19.128Z,17.37
2018-09-02T07:20:49.691Z,17.45
2018-09-02T07:23:18.350Z,17.51
2018-09-02T07:25:47.112Z,17.58
2018-09-02T07:28:15.692Z,17.65
2018-09-02T07:30:44.335Z,17.73
2018-09-02T07:33:13.183Z,17.75
2018-09-02T07:35:41.830Z,17.80
2018-09-02T07:38:11.339Z,17.91
2018-09-02T07:40:40.520Z,17.97
2018-09-02T07:43:09.728Z,17.93
2018-09-02T07:45:38.322Z,18.05
2018-09-02T07:48:06.856Z,18.08
2018-09-02T07:50:35.637Z,18.13
2018-09-02T07:53:04.533Z,18.14
2018-09-02T07:55:33.324Z,18.15
2018-09-02T07:58:01.939Z,18.23
2018-09-02T08:00:31.641Z,18.29
2018-09-02T08:03:01.079Z,18.29
2018-09-02T08:05:30.108Z,18.43
2018-09-02T08:07:58.814Z,18.54
2018-09-02T08:10:27.785Z,18.44
2018-09-02T08:12:56.865Z,18.59
2018-09-02T08:15:25.312Z,18.65
2018-09-02T08:17:53.958Z,18.70
2018-09-02T08:20:22.544Z,18.65
2018-09-02T08:22:51.266Z,18.70
2018-09-02T08:25:19.815Z,18.63
2018-09-02T08:27:50.057Z,18.53
2018-09-02T08:30:19.256Z,18.55
2018-09-02T08:32:48.506Z,18.55
2018-09-02T08:35:17.237Z,18.53
2018-09-02T08:37:47.105Z,18.50
2018-09-02T08:40:15.755Z,18.50
2018-09-02T08:42:44.981Z,18.52
2018-09-02T08:45:13.646Z,18.37
2018-09-02T08:47:42.202Z,18.40
2018-09-02T08:50:11.131Z,18.32
2018-09-02T08:52:39.870Z,18.36
2018-09-02T08:55:09.013Z,18.35
2018-09-02T08:57:37.778Z,18.31
2018-09-02T09:00:08.286Z,18.34
2018-09-02T09:02:37.323Z,18.38
2018-09-02T09:05:06.945Z,18.41
2018-09-02T09:07:36.255Z,18.43
2018-09-02T09:10:05.111Z,18.45
2018-09-02T09:12:33.632Z,18.44
2018-09-02T09:15:02.543Z,18.41
2018-09-02T09:17:31.143Z,18.49
2018-09-02T09:19:59.933Z,18.46
2018-09-02T09:22:28.549Z,18.49
2018-09-02T09:24:57.281Z,18.46
2018-09-02T09:27:25.919Z,18.50
2018-09-02T09:29:54.604Z,18.51
2018-09-02T09:32:23.400Z,18.57
2018-09-02T09:34:52.055Z,18.55
2018-09-02T09:37:20.833Z,18.61
2018-09-02T09:39:49.415Z,18.63
2018-09-02T09:42:19.672Z,18.69
2018-09-02T09:44:48.362Z,18.61
2018-09-02T09:47:17.167Z,18.61
2018-09-02T09:49:45.906Z,18.58
2018-09-02T09:52:16.348Z,18.61
2018-09-02T09:54:45.301Z,18.63
2018-09-02T09:57:14.060Z,18.67
2018-09-02T09:59:43.010Z,18.70
2018-09-02T10:02:11.753Z,18.74
2018-09-02T10:04:40.674Z,18.66
2018-09-02T10:07:09.973Z,18.62
2018-09-02T10:09:38.552Z,18.63
2018-09-02T10:12:07.119Z,18.60
2018-09-02T10:14:35.935Z,18.66
2018-09-02T10:17:04.553Z,18.62
2018-09-02T10:19:33.815Z,18.62
2018-09-02T10:22:02.730Z,18.66
2018-09-02T10:24:31.353Z,18.62
2018-09-02T10:27:00.083Z,18.60
2018-09-02T10:29:29.620Z,18.68
2018-09-02T10:31:58.912Z,18.59
2018-09-02T10:34:28.126Z,18.63
2018-09-02T10:36:56.776Z,18.61
2018-09-02T10:39:25.484Z,18.74
2018-09-02T10:41:54.064Z,18.71
2018-09-02T10:44:22.729Z,18.72
2018-09-02T10:46:51.935Z,18.74
2018-09-02T10:49:20.585Z,18.68
2018-09-02T10:51:49.214Z,18.78
2018-09-02T10:54:17.811Z,18.77
2018-09-02T10:56:46.925Z,18.82
2018-09-02T10:59:15.627Z,18.88
2018-09-02T11:01:43.949Z,18.94
2018-09-02T11:04:12.371Z,19.07
2018-09-02T11:06:41.166Z,19.05
2018-09-02T11:09:11.110Z,19.04
2018-09-02T11:11:39.668Z,19.16
2018-09-02T11:14:09.079Z,19.23
2018-09-02T11:16:38.273Z,19.28
2018-09-02T11:19:07.123Z,19.31
2018-09-02T11:21:35.918Z,19.37
2018-09-02T11:24:04.618Z,19.44
2018-09-02T11:26:33.204Z,19.47
2018-09-02T11:29:02.478Z,19.52
2018-09-02T11:31:31.927Z,19.56
2018-09-02T11:34:00.788Z,19.61
2018-09-02T11:36:29.469Z,19.70
2018-09-02T11:38:58.172Z,19.74
2018-09-02T11:41:26.720Z,19.79
2018-09-02T11:43:55.512Z,19.84
2018-09-02T11:46:24.705Z,19.99
2018-09-02T11:48:53.877Z,20.02
2018-09-02T11:51:23.481Z,20.17
2018-09-02T11:53:53.631Z,20.31
2018-09-02T11:56:22.242Z,20.49
2018-09-02T11:58:50.843Z,20.55
2018-09-02T12:01:19.594Z,20.64
2018-09-02T12:03:49.052Z,20.66
2018-09-02T12:06:17.826Z,20.72
2018-09-02T12:08:46.359Z,20.83
2018-09-02T12:11:14.848Z,20.86
2018-09-02T12:13:43.711Z,20.89
2018-09-02T12:16:12.799Z,20.85
2018-09-02T12:18:41.898Z,20.91
2018-09-02T12:21:10.562Z,20.86
2018-09-02T12:23:39.500Z,20.84
2018-09-02T12:26:08.841Z,20.73
2018-09-02T12:28:37.523Z,20.74
2018-09-02T12:31:06.192Z,20.73
2018-09-02T12:33:35.658Z,20.76
2018-09-02T12:36:05.382Z,20.83
2018-09-02T12:38:34.131Z,20.88
2018-09-02T12:41:03.581Z,21.05
2018-09-02T12:43:32.686Z,21.22
2018-09-02T12:46:01.287Z,21.33
2018-09-02T12:48:30.016Z,21.55
2018-09-02T12:50:58.875Z,21.69
2018-09-02T12:53:27.362Z,21.76
2018-09-02T12:55:55.938Z,21.84
2018-09-02T12:58:25.013Z,21.88
2018-09-02T13:00:53.599Z,21.86
2018-09-02T13:03:22.284Z,21.89
2018-09-02T13:05:51.392Z,21.93
2018-09-02T13:08:20.471Z,21.92
2018-09-02T13:10:48.998Z,21.93
2018-09-02T13:13:17.584Z,21.98
2018-09-02T13:15:46.375Z,21.97
2018-09-02T13:18:15.767Z,21.91
2018-09-02T13:20:44.441Z,22.07
2018-09-02T13:23:12.950Z,22.10
2018-09-02T13:25:42.144Z,22.09
2018-09-02T13:28:10.592Z,22.13
2018-09-02T13:30:40.359Z,22.19
2018-09-02T13:33:09.381Z,22.23
2018-09-02T13:35:38.070Z,22.22
2018-09-02T13:38:07.649Z,22.27
2018-09-02T13:40:36.572Z,22.27
2018-09-02T13:43:05.766Z,22.26
2018-09-02T13:45:34.431Z,22.28
2018-09-02T13:48:03.897Z,22.26
2018-09-02T13:50:32.777Z,22.32
2018-09-02T13:53:02.077Z,22.29
2018-09-02T13:55:31.185Z,22.24
2018-09-02T13:57:59.974Z,22.26
2018-09-02T14:00:28.592Z,22.38
2018-09-02T14:02:57.095Z,22.42
2018-09-02T14:05:25.557Z,22.46
2018-09-02T14:07:54.407Z,22.57
2018-09-02T14:10:23.097Z,22.63
2018-09-02T14:12:51.652Z,22.65
2018-09-02T14:15:20.168Z,22.64
2018-09-02T14:17:49.272Z,22.69
2018-09-02T14:20:18.038Z,22.72
2018-09-02T14:22:47.039Z,22.73
2018-09-02T14:25:15.385Z,22.77
2018-09-02T14:27:43.737Z,22.79
2018-09-02T14:30:12.105Z,22.74
2018-09-02T14:32:40.504Z,22.83
2018-09-02T14:35:08.946Z,22.93
2018-09-02T14:37:37.356Z,23.03
2018-09-02T14:40:05.977Z,22.99
2018-09-02T14:42:34.388Z,22.98
2018-09-02T14:45:02.820Z,23.03
2018-09-02T14:47:31.186Z,23.09
2018-09-02T14:49:59.788Z,23.09
2018-09-02T14:52:28.141Z,23.11
2018-09-02T14:54:56.511Z,23.19
2018-09-02T14:57:24.902Z,23.17
2018-09-02T14:59:53.274Z,23.12
2018-09-02T15:02:21.606Z,23.22
2018-09-02T15:04:49.942Z,23.17
2018-09-02T15:07:18.274Z,23.21
2018-09-02T15:09:46.632Z,23.21
2018-09-02T15:12:15.017Z,23.17
2018-09-02T15:14:43.373Z,23.16
2018-09-02T15:17:11.756Z,23.13
2018-09-02T15:19:40.553Z,23.10
2018-09-02T15:22:09.045Z,23.21
2018-09-02T15:24:39.252Z,23.22
2018-09-02T15:27:07.791Z,23.16
2018-09-02T15:29:36.312Z,23.18
2018-09-02T15:32:04.760Z,23.23
2018-09-02T15:34:33.364Z,23.24
2018-09-02T15:37:01.725Z,23.26
2018-09-02T15:39:30.190Z,23.26
2018-09-02T15:41:58.514Z,23.26
2018-09-02T15:44:26.930Z,23.32
2018-09-02T15:46:55.504Z,23.28
2018-09-02T15:49:24.209Z,23.26
2018-09-02T15:51:52.616Z,23.27
2018-09-02T15:54:21.593Z,23.23
2018-09-02T15:56:50.020Z,23.21
2018-09-02T15:59:18.432Z,23.17
2018-09-02T16:01:46.875Z,23.18
2018-09-02T16:04:15.223Z,23.18
2018-09-02T16:06:43.878Z,23.17
2018-09-02T16:09:12.960Z,23.17
2018-09-02T16:11:41.347Z,23.10
2018-09-02T16:14:10.260Z,23.13
2018-09-02T16:16:38.940Z,23.08
2018-09-02T16:19:07.438Z,23.11
2018-09-02T16:21:35.834Z,23.10
2018-09-02T16:24:04.256Z,23.05
2018-09-02T16:26:32.701Z,23.00
2018-09-02T16:29:01.125Z,23.05
2018-09-02T16:31:29.464Z,23.04
2018-09-02T16:33:57.986Z,22.99
2018-09-02T16:36:26.371Z,23.07
2018-09-02T16:38:54.745Z,23.05
2018-09-02T16:41:23.136Z,23.03
2018-09-02T16:43:51.520Z,23.01
2018-09-02T16:46:20.013Z,23.01
2018-09-02T16:48:48.439Z,22.96
2018-09-02T16:51:16.837Z,23.01
2018-09-02T16:53:45.303Z,22.99
2018-09-02T16:56:13.711Z,22.98
2018-09-02T16:58:42.281Z,22.88
2018-09-02T17:01:10.741Z,22.91
2018-09-02T17:03:42.403Z,22.88
2018-09-02T17:06:10.913Z,22.82
2018-09-02T17:08:39.860Z,22.86
2018-09-02T17:11:08.514Z,22.79
2018-09-02T17:13:37.181Z,22.77
2018-09-02T17:16:05.889Z,22.73
2018-09-02T17:18:34.523Z,22.74
2018-09-02T17:21:03.134Z,22.77
2018-09-02T17:23:31.647Z,22.80
2018-09-02T17:26:00.155Z,22.75
2018-09-02T17:28:28.692Z,22.75
2018-09-02T17:30:57.166Z,22.78
2018-09-02T17:33:25.656Z,22.79
2018-09-02T17:35:54.257Z,22.79
2018-09-02T17:38:22.787Z,22.75
2018-09-02T17:40:51.365Z,22.72
2018-09-02T17:43:20.538Z,22.72
2018-09-02T17:45:50.141Z,22.70
2018-09-02T17:48:19.830Z,22.65
2018-09-02T17:50:49.079Z,22.70
2018-09-02T17:53:17.635Z,22.68
2018-09-02T17:55:46.276Z,22.70
2018-09-02T17:58:15.142Z,22.71
2018-09-02T18:00:46.080Z,22.67
2018-09-02T18:03:14.742Z,22.69
2018-09-02T18:05:43.173Z,22.68
2018-09-02T18:08:11.766Z,22.71
2018-09-02T18:10:40.329Z,22.74
2018-09-02T18:13:08.854Z,22.74
2018-09-02T18:15:37.475Z,22.68
2018-09-02T18:18:06.196Z,22.63
2018-09-02T18:20:34.755Z,22.66
2018-09-02T18:23:03.168Z,22.63
2018-09-02T18:25:31.701Z,22.62
2018-09-02T18:28:02.555Z,22.69
2018-09-02T18:30:31.075Z,22.64
2018-09-02T18:32:59.532Z,22.63
2018-09-02T18:35:27.992Z,22.65
2018-09-02T18:37:56.416Z,22.60
2018-09-02T18:40:24.901Z,22.55
2018-09-02T18:42:54.228Z,22.58
2018-09-02T18:45:22.948Z,22.56
2018-09-02T18:47:51.271Z,22.54
2018-09-02T18:50:19.914Z,22.55
2018-09-02T18:52:48.607Z,22.54
2018-09-02T18:55:17.125Z,22.51
2018-09-02T18:57:45.557Z,22.51
2018-09-02T19:00:14.020Z,22.48
2018-09-02T19:02:43.416Z,22.44
2018-09-02T19:05:11.828Z,22.42
2018-09-02T19:07:40.305Z,22.37
2018-09-02T19:10:08.825Z,22.38
2018-09-02T19:12:37.320Z,22.34
2018-09-02T19:15:06.318Z,22.37
2018-09-02T19:17:34.925Z,22.31
2018-09-02T19:20:03.438Z,22.30
2018-09-02T19:22:31.934Z,22.26
2018-09-02T19:25:00.570Z,22.23
2018-09-02T19:27:29.029Z,22.21
2018-09-02T19:29:57.789Z,22.17
2018-09-02T19:32:26.351Z,22.13
2018-09-02T19:34:54.951Z,22.11
2018-09-02T19:37:23.430Z,22.06
2018-09-02T19:39:51.865Z,22.02
2018-09-02T19:42:20.391Z,22.00
2018-09-02T19:44:49.024Z,21.93
2018-09-02T19:47:17.876Z,21.91
2018-09-02T19:49:47.556Z,21.87
2018-09-02T19:52:16.111Z,21.84
2018-09-02T19:54:44.689Z,21.81
2018-09-02T19:57:13.089Z,21.77
2018-09-02T19:59:41.836Z,21.72
2018-09-02T20:02:10.635Z,21.68
2018-09-02T20:04:39.187Z,21.63
2018-09-02T20:07:07.868Z,21.59
2018-09-02T20:09:36.457Z,21.58
2018-09-02T20:12:05.107Z,21.54
2018-09-02T20:14:33.653Z,21.53
2018-09-02T20:17:03.222Z,21.49
2018-09-02T20:19:32.000Z,21.47
2018-09-02T20:22:00.897Z,21.46
2018-09-02T20:24:29.616Z,21.42
2018-09-02T20:26:58.383Z,21.40
2018-09-02T20:29:26.978Z,21.37
2018-09-02T20:31:56.440Z,21.35
2018-09-02T20:34:24.978Z,21.32
2018-09-02T20:36:53.671Z,21.31
2018-09-02T20:39:22.294Z,21.31
2018-09-02T20:41:51.580Z,21.28
2018-09-02T20:44:20.316Z,21.30
2018-09-02T20:46:49.051Z,21.31
2018-09-02T20:49:17.754Z,21.31
2018-09-02T20:51:46.310Z,21.26
2018-09-02T20:54:15.114Z,21.27
2018-09-02T20:56:43.772Z,21.26
2018-09-02T20:59:12.532Z,21.22
2018-09-02T21:01:41.057Z,21.22
2018-09-02T21:04:09.604Z,21.23
2018-09-02T21:06:38.227Z,21.26
2018-09-02T21:09:10.630Z,21.25
2018-09-02T21:11:39.160Z,21.22
2018-09-02T21:14:07.955Z,21.20
2018-09-02T21:16:36.937Z,21.19
2018-09-02T21:19:05.947Z,21.17
2018-09-02T21:21:34.722Z,21.12
2018-09-02T21:24:03.392Z,21.17
2018-09-02T21:26:31.984Z,21.18
2018-09-02T21:29:01.154Z,21.15
2018-09-02T21:31:30.015Z,21.12
2018-09-02T21:33:58.615Z,21.12
2018-09-02T21:36:27.141Z,21.12
2018-09-02T21:38:55.808Z,21.13
2018-09-02T21:41:24.476Z,21.09
2018-09-02T21:43:53.231Z,21.08
2018-09-02T21:46:21.873Z,21.05
2018-09-02T21:48:50.307Z,21.04
2018-09-02T21:51:18.917Z,21.05
2018-09-02T21:53:47.532Z,21.03
2018-09-02T21:56:16.103Z,20.99
2018-09-02T21:58:44.696Z,21.00
2018-09-02T22:01:14.143Z,20.97
2018-09-02T22:03:42.634Z,20.98
2018-09-02T22:06:11.158Z,20.97
2018-09-02T22:08:39.831Z,20.95
2018-09-02T22:11:08.366Z,20.95
2018-09-02T22:13:37.031Z,20.93
2018-09-02T22:16:05.749Z,20.90
2018-09-02T22:18:34.441Z,20.86
2018-09-02T22:21:03.155Z,20.89
2018-09-02T22:23:31.760Z,20.87
2018-09-02T22:26:00.442Z,20.88
2018-09-02T22:28:29.065Z,20.90
2018-09-02T22:30:57.700Z,20.88
2018-09-02T22:33:26.236Z,20.86
2018-09-02T22:35:54.940Z,20.84
2018-09-02T22:38:23.690Z,20.84
2018-09-02T22:40:52.705Z,20.84
2018-09-02T22:43:21.878Z,20.85
2018-09-02T22:45:50.635Z,20.85
2018-09-02T22:48:19.752Z,20.90
2018-09-02T22:50:48.460Z,20.95
2018-09-02T22:53:17.291Z,20.99
2018-09-02T22:55:46.990Z,20.97
2018-09-02T22:58:15.883Z,20.97
2018-09-02T23:00:44.660Z,21.01
2018-09-02T23:03:13.845Z,20.99
2018-09-02T23:05:42.625Z,21.03
2018-09-02T23:08:11.344Z,21.09
2018-09-02T23:10:40.278Z,21.08
2018-09-02T23:13:09.141Z,21.11
2018-09-02T23:15:37.876Z,21.10
2018-09-02T23:18:06.656Z,21.14
2018-09-02T23:20:35.677Z,21.14
2018-09-02T23:23:04.478Z,21.20
2018-09-02T23:25:34.470Z,21.14
2018-09-02T23:28:03.055Z,21.18
2018-09-02T23:30:31.860Z,21.18
2018-09-02T23:33:00.743Z,21.19
2018-09-02T23:35:29.461Z,21.17
2018-09-02T23:37:58.346Z,21.18
2018-09-02T23:40:27.271Z,21.19
2018-09-02T23:42:56.286Z,21.20
2018-09-02T23:45:25.043Z,21.19
2018-09-02T23:47:53.812Z,21.19
2018-09-02T23:50:25.635Z,21.20
2018-09-02T23:52:54.413Z,21.20
2018-09-02T23:55:23.213Z,21.15
2018-09-02T23:57:52.007Z,21.15
